sensor_id;sensor_type;location;lat;lon;timestamp;pressure;altitude;pressure_sealevel;temperature;humidity
76050;BME280;64967;50.234;19.224;2024-03-23T00:52:41;74982.03;;;-143.90;100.00
76050;BME280;64967;50.234;19.224;2024-03-23T00:55:07;74975.81;;;-143.90;100.00
76050;BME280;64967;50.234;19.224;2024-03-23T00:57:33;74969.63;;;-143.90;100.00
76050;BME280;64967;50.234;19.224;2024-03-23T00:59:58;74965.50;;;-143.90;100.00
76050;BME280;64967;50.234;19.224;2024-03-23T01:02:24;74957.22;;;-143.90;100.00
76050;BME280;64967;50.234;19.224;2024-03-23T01:04:50;74965.50;;;-143.90;100.00
76050;BME280;64967;50.234;19.224;2024-03-23T01:07:15;74965.50;;;-143.90;100.00
76050;BME280;64967;50.234;19.224;2024-03-23T01:09:41;74971.69;;;-143.90;100.00
76050;BME280;64967;50.234;19.224;2024-03-23T01:12:06;74986.16;;;-143.90;100.00
76050;BME280;64967;50.234;19.224;2024-03-23T01:14:32;74982.03;;;-143.90;100.00
76050;BME280;64967;50.234;19.224;2024-03-23T01:16:58;74977.88;;;-143.90;100.00
76050;BME280;64967;50.234;19.224;2024-03-23T01:19:23;74973.75;;;-143.90;100.00
76050;BME280;64967;50.234;19.224;2024-03-23T01:21:49;74979.97;;;-143.90;100.00
76050;BME280;64967;50.234;19.224;2024-03-23T01:24:15;74979.97;;;-143.90;100.00
76050;BME280;64967;50.234;19.224;2024-03-23T01:26:41;74975.81;;;-143.90;100.00
76050;BME280;64967;50.234;19.224;2024-03-23T01:29:06;74973.75;;;-143.90;100.00
76050;BME280;64967;50.234;19.224;2024-03-23T01:31:32;74977.88;;;-143.90;100.00
76050;BME280;64967;50.234;19.224;2024-03-23T01:33:58;74982.03;;;-143.90;100.00
76050;BME280;64967;50.234;19.224;2024-03-23T01:36:24;74988.22;;;-143.90;100.00
76050;BME280;64967;50.234;19.224;2024-03-23T01:38:50;74984.09;;;-143.90;100.00
76050;BME280;64967;50.234;19.224;2024-03-23T01:41:17;74984.09;;;-143.90;100.00
76050;BME280;64967;50.234;19.224;2024-03-23T01:43:43;74988.22;;;-143.90;100.00
76050;BME280;64967;50.234;19.224;2024-03-23T01:46:08;74979.97;;;-143.90;100.00
76050;BME280;64967;50.234;19.224;2024-03-23T01:48:34;74986.16;;;-143.90;100.00
76050;BME280;64967;50.234;19.224;2024-03-23T01:51:00;74986.16;;;-143.90;100.00
76050;BME280;64967;50.234;19.224;2024-03-23T01:53:26;74986.16;;;-143.90;100.00
76050;BME280;64967;50.234;19.224;2024-03-23T01:55:51;74982.03;;;-143.90;100.00
76050;BME280;64967;50.234;19.224;2024-03-23T01:58:17;74986.16;;;-143.90;100.00
76050;BME280;64967;50.234;19.224;2024-03-23T02:00:43;74994.44;;;-143.90;100.00
76050;BME280;64967;50.234;19.224;2024-03-23T02:03:27;74982.03;;;-143.90;100.00
76050;BME280;64967;50.234;19.224;2024-03-23T02:05:54;74979.97;;;-143.90;100.00
76050;BME280;64967;50.234;19.224;2024-03-23T02:08:21;74967.56;;;-143.90;100.00
76050;BME280;64967;50.234;19.224;2024-03-23T02:10:50;74961.34;;;-143.90;100.00
76050;BME280;64967;50.234;19.224;2024-03-23T02:13:18;74953.09;;;-143.90;100.00
76050;BME280;64967;50.234;19.224;2024-03-23T02:15:44;74948.94;;;-143.90;100.00
76050;BME280;64967;50.234;19.224;2024-03-23T02:18:10;74944.81;;;-143.90;100.00
76050;BME280;64967;50.234;19.224;2024-03-23T02:20:36;74944.81;;;-143.90;100.00
76050;BME280;64967;50.234;19.224;2024-03-23T02:23:03;74940.69;;;-143.90;100.00
76050;BME280;64967;50.234;19.224;2024-03-23T02:25:34;74955.16;;;-143.90;100.00
76050;BME280;64967;50.234;19.224;2024-03-23T02:28:00;74977.88;;;-143.90;100.00
76050;BME280;64967;50.234;19.224;2024-03-23T02:30:26;74971.69;;;-143.90;100.00
76050;BME280;64967;50.234;19.224;2024-03-23T02:32:52;74967.56;;;-143.90;100.00
76050;BME280;64967;50.234;19.224;2024-03-23T02:35:17;74951.00;;;-143.90;100.00
76050;BME280;64967;50.234;19.224;2024-03-23T02:37:43;74936.53;;;-143.90;100.00
76050;BME280;64967;50.234;19.224;2024-03-23T02:40:08;74913.81;;;-143.90;100.00
76050;BME280;64967;50.234;19.224;2024-03-23T02:42:34;74899.34;;;-143.90;100.00
76050;BME280;64967;50.234;19.224;2024-03-23T02:45:00;74907.59;;;-143.90;100.00
76050;BME280;64967;50.234;19.224;2024-03-23T02:47:25;74899.34;;;-143.90;100.00
76050;BME280;64967;50.234;19.224;2024-03-23T02:49:51;74889.00;;;-143.90;100.00
76050;BME280;64967;50.234;19.224;2024-03-23T02:52:16;74874.53;;;-143.90;100.00
76050;BME280;64967;50.234;19.224;2024-03-23T02:54:42;74870.38;;;-143.90;100.00
76050;BME280;64967;50.234;19.224;2024-03-23T02:57:10;74858.00;;;-143.90;100.00
76050;BME280;64967;50.234;19.224;2024-03-23T02:59:36;74870.38;;;-143.90;100.00
76050;BME280;64967;50.234;19.224;2024-03-23T03:02:02;74853.84;;;-143.90;100.00
76050;BME280;64967;50.234;19.224;2024-03-23T03:04:30;74841.44;;;-143.90;100.00
76050;BME280;64967;50.234;19.224;2024-03-23T03:06:55;74831.13;;;-143.90;100.00
76050;BME280;64967;50.234;19.224;2024-03-23T03:09:21;74831.13;;;-143.90;100.00
76050;BME280;64967;50.234;19.224;2024-03-23T03:11:47;74833.19;;;-143.90;100.00
76050;BME280;64967;50.234;19.224;2024-03-23T03:14:13;74824.91;;;-143.90;100.00
76050;BME280;64967;50.234;19.224;2024-03-23T03:16:38;74831.13;;;-143.90;100.00
76050;BME280;64967;50.234;19.224;2024-03-23T03:19:04;74845.59;;;-143.90;100.00
76050;BME280;64967;50.234;19.224;2024-03-23T03:21:30;74841.44;;;-143.90;100.00
76050;BME280;64967;50.234;19.224;2024-03-23T03:23:56;74833.19;;;-143.90;100.00
76050;BME280;64967;50.234;19.224;2024-03-23T03:26:22;74831.13;;;-143.90;100.00
76050;BME280;64967;50.234;19.224;2024-03-23T03:28:48;74824.91;;;-143.90;100.00
76050;BME280;64967;50.234;19.224;2024-03-23T03:31:20;74824.91;;;-143.90;100.00
76050;BME280;64967;50.234;19.224;2024-03-23T03:33:46;74820.78;;;-143.90;100.00
76050;BME280;64967;50.234;19.224;2024-03-23T03:36:12;74822.84;;;-143.90;100.00
76050;BME280;64967;50.234;19.224;2024-03-23T03:38:37;74829.03;;;-143.90;100.00
76050;BME280;64967;50.234;19.224;2024-03-23T03:41:06;74849.72;;;-143.90;100.00
76050;BME280;64967;50.234;19.224;2024-03-23T03:43:32;74872.47;;;-143.90;100.00
76050;BME280;64967;50.234;19.224;2024-03-23T03:45:59;74882.78;;;-143.90;100.00
76050;BME280;64967;50.234;19.224;2024-03-23T03:48:24;74882.78;;;-143.90;100.00
76050;BME280;64967;50.234;19.224;2024-03-23T03:50:50;74884.88;;;-143.90;100.00
76050;BME280;64967;50.234;19.224;2024-03-23T03:53:16;74886.94;;;-143.90;100.00
76050;BME280;64967;50.234;19.224;2024-03-23T03:55:41;74880.72;;;-143.90;100.00
76050;BME280;64967;50.234;19.224;2024-03-23T03:58:07;74886.94;;;-143.90;100.00
76050;BME280;64967;50.234;19.224;2024-03-23T04:00:33;74884.88;;;-143.90;100.00
76050;BME280;64967;50.234;19.224;2024-03-23T04:02:59;74897.25;;;-143.90;100.00
76050;BME280;64967;50.234;19.224;2024-03-23T04:05:24;74924.13;;;-143.90;100.00
76050;BME280;64967;50.234;19.224;2024-03-23T04:07:50;74936.53;;;-143.90;100.00
76050;BME280;64967;50.234;19.224;2024-03-23T04:10:15;74942.75;;;-143.90;100.00
76050;BME280;64967;50.234;19.224;2024-03-23T04:12:42;74944.81;;;-143.90;100.00
76050;BME280;64967;50.234;19.224;2024-03-23T04:15:08;74934.47;;;-143.90;100.00
76050;BME280;64967;50.234;19.224;2024-03-23T04:17:34;74936.53;;;-143.90;100.00
76050;BME280;64967;50.234;19.224;2024-03-23T04:20:01;74936.53;;;-143.90;100.00
76050;BME280;64967;50.234;19.224;2024-03-23T04:22:27;74922.06;;;-143.90;100.00
76050;BME280;64967;50.234;19.224;2024-03-23T04:24:53;74922.06;;;-143.90;100.00
76050;BME280;64967;50.234;19.224;2024-03-23T04:27:19;74930.34;;;-143.90;100.00
76050;BME280;64967;50.234;19.224;2024-03-23T04:29:49;74957.22;;;-143.90;100.00
76050;BME280;64967;50.234;19.224;2024-03-23T04:32:14;74957.22;;;-143.90;100.00
76050;BME280;64967;50.234;19.224;2024-03-23T04:34:40;74944.81;;;-143.90;100.00
76050;BME280;64967;50.234;19.224;2024-03-23T04:37:06;74932.41;;;-143.90;100.00
76050;BME280;64967;50.234;19.224;2024-03-23T04:39:31;74920.00;;;-143.90;100.00
76050;BME280;64967;50.234;19.224;2024-03-23T04:41:57;74922.06;;;-143.90;100.00
76050;BME280;64967;50.234;19.224;2024-03-23T04:44:22;74920.00;;;-143.90;100.00
76050;BME280;64967;50.234;19.224;2024-03-23T04:46:48;74924.13;;;-143.90;100.00
76050;BME280;64967;50.234;19.224;2024-03-23T04:49:13;74920.00;;;-143.90;100.00
76050;BME280;64967;50.234;19.224;2024-03-23T04:51:39;74907.59;;;-143.90;100.00
76050;BME280;64967;50.234;19.224;2024-03-23T04:54:07;74903.47;;;-143.90;100.00
76050;BME280;64967;50.234;19.224;2024-03-23T04:56:32;74897.25;;;-143.90;100.00
76050;BME280;64967;50.234;19.224;2024-03-23T04:58:58;74907.59;;;-143.90;100.00
76050;BME280;64967;50.234;19.224;2024-03-23T05:01:27;74915.88;;;-143.90;100.00
76050;BME280;64967;50.234;19.224;2024-03-23T05:03:53;74909.66;;;-143.90;100.00
76050;BME280;64967;50.234;19.224;2024-03-23T05:06:18;74909.66;;;-143.90;100.00
76050;BME280;64967;50.234;19.224;2024-03-23T05:08:44;74905.53;;;-143.90;100.00
76050;BME280;64967;50.234;19.224;2024-03-23T05:11:11;74905.53;;;-143.90;100.00
76050;BME280;64967;50.234;19.224;2024-03-23T05:13:37;74915.88;;;-143.90;100.00
76050;BME280;64967;50.234;19.224;2024-03-23T05:16:02;74924.13;;;-143.90;100.00
76050;BME280;64967;50.234;19.224;2024-03-23T05:18:29;74917.94;;;-143.90;100.00
76050;BME280;64967;50.234;19.224;2024-03-23T05:20:58;74907.59;;;-143.90;100.00
76050;BME280;64967;50.234;19.224;2024-03-23T05:23:24;74907.59;;;-143.90;100.00
76050;BME280;64967;50.234;19.224;2024-03-23T05:25:50;74901.41;;;-143.90;100.00
76050;BME280;64967;50.234;19.224;2024-03-23T05:28:17;74891.06;;;-143.90;100.00
76050;BME280;64967;50.234;19.224;2024-03-23T05:30:43;74872.47;;;-143.90;100.00
76050;BME280;64967;50.234;19.224;2024-03-23T05:33:09;74866.25;;;-143.90;100.00
76050;BME280;64967;50.234;19.224;2024-03-23T05:35:34;74851.78;;;-143.90;100.00
76050;BME280;64967;50.234;19.224;2024-03-23T05:38:00;74858.00;;;-143.90;100.00
76050;BME280;64967;50.234;19.224;2024-03-23T05:40:26;74858.00;;;-143.90;100.00
76050;BME280;64967;50.234;19.224;2024-03-23T05:42:52;74853.84;;;-143.90;100.00
76050;BME280;64967;50.234;19.224;2024-03-23T05:45:19;74866.25;;;-143.90;100.00
76050;BME280;64967;50.234;19.224;2024-03-23T05:47:44;74851.78;;;-143.90;100.00
76050;BME280;64967;50.234;19.224;2024-03-23T05:50:10;74841.44;;;-143.90;100.00
76050;BME280;64967;50.234;19.224;2024-03-23T05:52:38;74845.59;;;-143.90;100.00
76050;BME280;64967;50.234;19.224;2024-03-23T05:55:05;74841.44;;;-143.90;100.00
76050;BME280;64967;50.234;19.224;2024-03-23T05:57:31;74829.03;;;-143.90;100.00
76050;BME280;64967;50.234;19.224;2024-03-23T05:59:56;74820.78;;;-143.90;100.00
76050;BME280;64967;50.234;19.224;2024-03-23T06:02:23;74808.38;;;-143.90;100.00
76050;BME280;64967;50.234;19.224;2024-03-23T06:04:49;74804.25;;;-143.90;100.00
76050;BME280;64967;50.234;19.224;2024-03-23T06:07:15;74804.25;;;-143.90;100.00
76050;BME280;64967;50.234;19.224;2024-03-23T06:09:43;74795.97;;;-143.90;100.00
76050;BME280;64967;50.234;19.224;2024-03-23T06:12:09;74785.63;;;-143.90;100.00
76050;BME280;64967;50.234;19.224;2024-03-23T06:14:35;74787.69;;;-143.90;100.00
76050;BME280;64967;50.234;19.224;2024-03-23T06:17:00;74771.16;;;-143.90;100.00
76050;BME280;64967;50.234;19.224;2024-03-23T06:19:27;74758.75;;;-143.90;100.00
76050;BME280;64967;50.234;19.224;2024-03-23T06:21:53;74750.50;;;-143.90;100.00
76050;BME280;64967;50.234;19.224;2024-03-23T06:24:21;74748.44;;;-143.90;100.00
76050;BME280;64967;50.234;19.224;2024-03-23T06:26:47;74742.22;;;-143.90;100.00
76050;BME280;64967;50.234;19.224;2024-03-23T06:29:13;74729.81;;;-143.90;100.00
76050;BME280;64967;50.234;19.224;2024-03-23T06:31:38;74721.56;;;-143.90;100.00
76050;BME280;64967;50.234;19.224;2024-03-23T06:34:04;74709.16;;;-143.90;100.00
76050;BME280;64967;50.234;19.224;2024-03-23T06:36:30;74700.88;;;-143.90;100.00
76050;BME280;64967;50.234;19.224;2024-03-23T06:38:56;74688.47;;;-143.90;100.00
76050;BME280;64967;50.234;19.224;2024-03-23T06:41:22;74676.06;;;-143.90;100.00
76050;BME280;64967;50.234;19.224;2024-03-23T06:43:48;74659.53;;;-143.90;100.00
76050;BME280;64967;50.234;19.224;2024-03-23T06:46:14;74643.00;;;-143.90;100.00
76050;BME280;64967;50.234;19.224;2024-03-23T06:48:39;74630.59;;;-143.90;100.00
76050;BME280;64967;50.234;19.224;2024-03-23T06:51:05;74618.19;;;-143.90;100.00
76050;BME280;64967;50.234;19.224;2024-03-23T06:53:32;74599.59;;;-143.90;100.00
76050;BME280;64967;50.234;19.224;2024-03-23T06:55:57;74574.78;;;-143.90;100.00
76050;BME280;64967;50.234;19.224;2024-03-23T06:58:24;74560.31;;;-143.90;100.00
76050;BME280;64967;50.234;19.224;2024-03-23T07:00:50;74541.72;;;-143.90;100.00
76050;BME280;64967;50.234;19.224;2024-03-23T07:03:16;74533.44;;;-143.90;100.00
76050;BME280;64967;50.234;19.224;2024-03-23T07:05:42;74518.97;;;-143.90;100.00
76050;BME280;64967;50.234;19.224;2024-03-23T07:08:08;74506.56;;;-143.90;100.00
76050;BME280;64967;50.234;19.224;2024-03-23T07:10:34;74492.09;;;-143.90;100.00
76050;BME280;64967;50.234;19.224;2024-03-23T07:13:01;74475.56;;;-143.90;100.00
76050;BME280;64967;50.234;19.224;2024-03-23T07:15:26;74461.09;;;-143.90;100.00
76050;BME280;64967;50.234;19.224;2024-03-23T07:17:52;74442.50;;;-143.90;100.00
76050;BME280;64967;50.234;19.224;2024-03-23T07:20:18;74417.69;;;-143.90;100.00
76050;BME280;64967;50.234;19.224;2024-03-23T07:22:45;74409.41;;;-143.90;100.00
76050;BME280;64967;50.234;19.224;2024-03-23T07:25:11;74397.03;;;-143.90;100.00
76050;BME280;64967;50.234;19.224;2024-03-23T07:27:36;74382.56;;;-143.90;100.00
76050;BME280;64967;50.234;19.224;2024-03-23T07:30:02;74368.09;;;-143.90;100.00
76050;BME280;64967;50.234;19.224;2024-03-23T07:32:28;74351.53;;;-143.90;100.00
76050;BME280;64967;50.234;19.224;2024-03-23T07:34:53;74320.53;;;-143.90;100.00
76050;BME280;64967;50.234;19.224;2024-03-23T07:37:19;74283.34;;;-143.90;100.00
76050;BME280;64967;50.234;19.224;2024-03-23T07:39:44;74242.00;;;-143.90;100.00
76050;BME280;64967;50.234;19.224;2024-03-23T07:42:10;74213.06;;;-143.90;100.00
76050;BME280;64967;50.234;19.224;2024-03-23T07:44:36;74190.31;;;-143.90;100.00
76050;BME280;64967;50.234;19.224;2024-03-23T07:47:01;74167.59;;;-143.90;100.00
76050;BME280;64967;50.234;19.224;2024-03-23T07:49:27;74153.13;;;-143.90;100.00
76050;BME280;64967;50.234;19.224;2024-03-23T07:51:53;74146.91;;;-143.90;100.00
76050;BME280;64967;50.234;19.224;2024-03-23T07:54:19;74142.78;;;-143.90;100.00
76050;BME280;64967;50.234;19.224;2024-03-23T07:56:44;74120.06;;;-143.90;100.00
76050;BME280;64967;50.234;19.224;2024-03-23T07:59:10;74132.44;;;-143.90;100.00
76050;BME280;64967;50.234;19.224;2024-03-23T08:01:36;74103.53;;;-143.90;100.00
76050;BME280;64967;50.234;19.224;2024-03-23T08:04:02;74089.06;;;-143.90;100.00
76050;BME280;64967;50.234;19.224;2024-03-23T08:06:27;74084.91;;;-143.90;100.00
76050;BME280;64967;50.234;19.224;2024-03-23T08:08:57;74107.66;;;-143.90;100.00
76050;BME280;64967;50.234;19.224;2024-03-23T08:11:30;74103.53;;;-143.90;100.00
76050;BME280;64967;50.234;19.224;2024-03-23T08:13:56;74080.78;;;-143.90;100.00
76050;BME280;64967;50.234;19.224;2024-03-23T08:16:22;74072.50;;;-143.90;100.00
76050;BME280;64967;50.234;19.224;2024-03-23T08:18:51;74068.38;;;-143.90;100.00
76050;BME280;64967;50.234;19.224;2024-03-23T08:21:17;74055.97;;;-143.90;100.00
76050;BME280;64967;50.234;19.224;2024-03-23T08:23:42;74055.97;;;-143.90;100.00
76050;BME280;64967;50.234;19.224;2024-03-23T08:26:09;74043.59;;;-143.90;100.00
76050;BME280;64967;50.234;19.224;2024-03-23T08:28:36;74027.03;;;-143.90;100.00
76050;BME280;64967;50.234;19.224;2024-03-23T08:31:06;74000.19;;;-143.90;100.00
76050;BME280;64967;50.234;19.224;2024-03-23T08:33:32;73973.31;;;-143.90;100.00
76050;BME280;64967;50.234;19.224;2024-03-23T08:35:59;73934.03;;;-143.90;100.00
76050;BME280;64967;50.234;19.224;2024-03-23T08:38:26;73890.63;;;-143.90;100.00
76050;BME280;64967;50.234;19.224;2024-03-23T08:41:19;73849.31;;;-143.90;100.00
76050;BME280;64967;50.234;19.224;2024-03-23T08:43:44;73838.97;;;-143.90;73.67
76050;BME280;64967;50.234;19.224;2024-03-23T08:46:15;73849.31;;;-143.90;68.97
76050;BME280;64967;50.234;19.224;2024-03-23T08:48:44;73822.44;;;-143.90;73.29
76050;BME280;64967;50.234;19.224;2024-03-23T08:51:13;73816.25;;;-143.90;71.62
76050;BME280;64967;50.234;19.224;2024-03-23T08:53:39;73791.44;;;-143.90;74.23
76050;BME280;64967;50.234;19.224;2024-03-23T08:56:06;73768.69;;;-143.90;66.35
76050;BME280;64967;50.234;19.224;2024-03-23T08:58:33;73741.84;;;-143.90;68.62
76050;BME280;64967;50.234;19.224;2024-03-23T09:01:04;73704.63;;;-143.90;69.04
76050;BME280;64967;50.234;19.224;2024-03-23T09:03:30;73679.84;;;-143.90;67.21
76050;BME280;64967;50.234;19.224;2024-03-23T09:05:56;73683.97;;;-143.90;63.00
76050;BME280;64967;50.234;19.224;2024-03-23T09:08:23;73688.09;;;-143.90;66.36
76050;BME280;64967;50.234;19.224;2024-03-23T09:10:49;73671.56;;;-143.90;65.63
76050;BME280;64967;50.234;19.224;2024-03-23T09:13:15;73665.38;;;-143.90;64.76
76050;BME280;64967;50.234;19.224;2024-03-23T09:15:49;73655.03;;;-143.90;61.90
76050;BME280;64967;50.234;19.224;2024-03-23T09:18:15;73659.16;;;-143.90;62.28
76050;BME280;64967;50.234;19.224;2024-03-23T09:20:41;73646.78;;;-143.90;63.78
76050;BME280;64967;50.234;19.224;2024-03-23T09:23:07;73634.38;;;-143.90;65.10
76050;BME280;64967;50.234;19.224;2024-03-23T09:25:37;73626.09;;;-143.90;64.18
76050;BME280;64967;50.234;19.224;2024-03-23T09:28:03;73621.97;;;-143.90;63.51
76050;BME280;64967;50.234;19.224;2024-03-23T09:30:29;73621.97;;;-143.90;64.23
76050;BME280;64967;50.234;19.224;2024-03-23T09:32:54;73593.03;;;-143.90;61.46
76050;BME280;64967;50.234;19.224;2024-03-23T09:35:20;73582.72;;;-143.90;58.71
76050;BME280;64967;50.234;19.224;2024-03-23T09:37:45;73564.09;;;-143.90;58.54
76050;BME280;64967;50.234;19.224;2024-03-23T09:40:11;73549.63;;;-143.90;56.59
76050;BME280;64967;50.234;19.224;2024-03-23T09:42:38;73531.03;;;-143.90;55.68
76050;BME280;64967;50.234;19.224;2024-03-23T09:45:11;73506.25;;;-143.90;53.79
76050;BME280;64967;50.234;19.224;2024-03-23T09:47:42;73475.25;;;-143.90;53.63
76050;BME280;64967;50.234;19.224;2024-03-23T09:50:08;73466.97;;;-143.90;50.63
76050;BME280;64967;50.234;19.224;2024-03-23T09:52:34;73458.72;;;-143.90;48.07
76050;BME280;64967;50.234;19.224;2024-03-23T09:55:00;73452.50;;;-143.90;48.96
76050;BME280;64967;50.234;19.224;2024-03-23T09:57:26;73444.25;;;-143.90;48.42
76050;BME280;64967;50.234;19.224;2024-03-23T09:59:51;73464.91;;;-143.90;45.87
76050;BME280;64967;50.234;19.224;2024-03-23T10:02:17;73473.19;;;-143.90;44.60
76050;BME280;64967;50.234;19.224;2024-03-23T10:04:45;73462.84;;;-143.90;46.73
76050;BME280;64967;50.234;19.224;2024-03-23T10:09:38;73456.66;;;-143.90;43.95
76050;BME280;64967;50.234;19.224;2024-03-23T10:12:11;73429.78;;;-143.90;45.38
76050;BME280;64967;50.234;19.224;2024-03-23T10:14:37;73411.19;;;-143.90;42.84
76050;BME280;64967;50.234;19.224;2024-03-23T10:17:17;73402.91;;;-143.90;44.25
76050;BME280;64967;50.234;19.224;2024-03-23T10:19:46;73378.13;;;-143.90;43.59
76050;BME280;64967;50.234;19.224;2024-03-23T10:22:14;73353.31;;;-143.90;44.69
76050;BME280;64967;50.234;19.224;2024-03-23T10:24:41;73340.94;;;-143.90;43.36
76050;BME280;64967;50.234;19.224;2024-03-23T10:27:07;73320.25;;;-143.90;42.88
76050;BME280;64967;50.234;19.224;2024-03-23T10:29:33;73307.84;;;-143.90;42.86
76050;BME280;64967;50.234;19.224;2024-03-23T10:32:09;73318.19;;;-143.90;41.97
76050;BME280;64967;50.234;19.224;2024-03-23T10:34:36;73303.72;;;-143.90;41.21
76050;BME280;64967;50.234;19.224;2024-03-23T10:37:03;73295.47;;;-143.90;41.04
76050;BME280;64967;50.234;19.224;2024-03-23T10:39:32;73285.13;;;-143.90;41.49
76050;BME280;64967;50.234;19.224;2024-03-23T10:42:00;73283.06;;;-143.90;40.69
76050;BME280;64967;50.234;19.224;2024-03-23T10:44:28;73274.81;;;-143.90;40.17
76050;BME280;64967;50.234;19.224;2024-03-23T10:46:55;73252.06;;;-143.90;40.44
76050;BME280;64967;50.234;19.224;2024-03-23T10:49:35;73285.13;;;-143.90;39.93
76050;BME280;64967;50.234;19.224;2024-03-23T10:52:04;73299.59;;;-143.90;39.70
76050;BME280;64967;50.234;19.224;2024-03-23T10:54:31;73289.25;;;-143.90;39.82
76050;BME280;64967;50.234;19.224;2024-03-23T10:57:16;73241.75;;;-143.90;40.67
76050;BME280;64967;50.234;19.224;2024-03-23T10:59:44;73221.06;;;-143.90;40.54
76050;BME280;64967;50.234;19.224;2024-03-23T11:02:20;73214.88;;;-143.90;40.31
76050;BME280;64967;50.234;19.224;2024-03-23T11:04:46;73206.59;;;-143.90;41.26
76050;BME280;64967;50.234;19.224;2024-03-23T11:09:50;73198.34;;;-143.90;39.50
76050;BME280;64967;50.234;19.224;2024-03-23T11:17:19;73150.81;;;-143.90;38.90
76050;BME280;64967;50.234;19.224;2024-03-23T11:19:53;73119.81;;;-143.90;40.21
76050;BME280;64967;50.234;19.224;2024-03-23T11:22:46;73109.50;;;-143.90;39.28
76050;BME280;64967;50.234;19.224;2024-03-23T11:25:22;73086.75;;;-143.90;38.83
76050;BME280;64967;50.234;19.224;2024-03-23T11:27:56;73064.03;;;-143.90;39.00
76050;BME280;64967;50.234;19.224;2024-03-23T11:30:26;73061.97;;;-143.90;37.78
76050;BME280;64967;50.234;19.224;2024-03-23T11:32:53;73057.84;;;-143.90;36.67
76050;BME280;64967;50.234;19.224;2024-03-23T11:35:35;73055.75;;;-143.90;37.47
76050;BME280;64967;50.234;19.224;2024-03-23T11:38:12;73041.31;;;-143.90;36.58
76050;BME280;64967;50.234;19.224;2024-03-23T11:40:42;73014.44;;;-143.90;37.85
76050;BME280;64967;50.234;19.224;2024-03-23T11:43:11;73012.38;;;-143.90;36.69
76050;BME280;64967;50.234;19.224;2024-03-23T11:45:48;73002.03;;;-143.90;36.56
76050;BME280;64967;50.234;19.224;2024-03-23T11:48:23;72993.78;;;-143.90;35.20
76050;BME280;64967;50.234;19.224;2024-03-23T11:50:53;72962.78;;;-143.90;35.78
76050;BME280;64967;50.234;19.224;2024-03-23T11:53:21;72952.44;;;-143.90;35.02
76050;BME280;64967;50.234;19.224;2024-03-23T11:58:17;72952.44;;;-143.90;35.17
76050;BME280;64967;50.234;19.224;2024-03-23T12:00:52;72948.31;;;-143.90;34.38
76050;BME280;64967;50.234;19.224;2024-03-23T12:03:19;72927.66;;;-143.90;35.79
76050;BME280;64967;50.234;19.224;2024-03-23T12:05:55;72931.78;;;-143.90;34.83
76050;BME280;64967;50.234;19.224;2024-03-23T12:10:49;72929.72;;;-143.90;34.93
76050;BME280;64967;50.234;19.224;2024-03-23T12:13:16;72907.00;;;-143.90;35.40
76050;BME280;64967;50.234;19.224;2024-03-23T12:15:44;72882.19;;;-143.90;35.08
76050;BME280;64967;50.234;19.224;2024-03-23T12:18:10;72861.53;;;-143.90;36.43
76050;BME280;64967;50.234;19.224;2024-03-23T12:20:36;72865.66;;;-143.90;35.95
76050;BME280;64967;50.234;19.224;2024-03-23T12:23:07;72871.88;;;-143.90;34.63
76050;BME280;64967;50.234;19.224;2024-03-23T12:25:34;72865.66;;;-143.90;34.46
76050;BME280;64967;50.234;19.224;2024-03-23T12:28:00;72873.94;;;-143.90;35.14
76050;BME280;64967;50.234;19.224;2024-03-23T12:30:25;72878.06;;;-143.90;34.29
76050;BME280;64967;50.234;19.224;2024-03-23T12:32:51;72861.53;;;-143.90;34.90
76050;BME280;64967;50.234;19.224;2024-03-23T12:35:17;72857.41;;;-143.90;34.93
76050;BME280;64967;50.234;19.224;2024-03-23T12:37:43;72861.53;;;-143.90;33.99
76050;BME280;64967;50.234;19.224;2024-03-23T12:40:09;72882.19;;;-143.90;34.55
76050;BME280;64967;50.234;19.224;2024-03-23T12:42:35;72869.81;;;-143.90;35.61
76050;BME280;64967;50.234;19.224;2024-03-23T12:45:01;72824.34;;;-143.90;35.28
76050;BME280;64967;50.234;19.224;2024-03-23T12:47:26;72793.34;;;-143.90;35.01
76050;BME280;64967;50.234;19.224;2024-03-23T12:49:52;72783.03;;;-143.90;34.39
76050;BME280;64967;50.234;19.224;2024-03-23T12:52:18;72752.03;;;-143.90;33.77
76050;BME280;64967;50.234;19.224;2024-03-23T12:54:45;72754.09;;;-143.90;32.57
76050;BME280;64967;50.234;19.224;2024-03-23T12:57:10;72770.63;;;-143.90;32.14
76050;BME280;64967;50.234;19.224;2024-03-23T12:59:36;72764.44;;;-143.90;32.69
76050;BME280;64967;50.234;19.224;2024-03-23T13:02:02;72770.63;;;-143.90;32.35
76050;BME280;64967;50.234;19.224;2024-03-23T13:04:28;72774.75;;;-143.90;33.12
76050;BME280;64967;50.234;19.224;2024-03-23T13:06:53;72741.69;;;-143.90;33.44
76050;BME280;64967;50.234;19.224;2024-03-23T13:09:19;72725.16;;;-143.90;32.01
76050;BME280;64967;50.234;19.224;2024-03-23T13:11:44;72716.91;;;-143.90;31.88
76050;BME280;64967;50.234;19.224;2024-03-23T13:14:10;72737.56;;;-143.90;31.62
76050;BME280;64967;50.234;19.224;2024-03-23T13:16:35;72760.28;;;-143.90;31.26
76050;BME280;64967;50.234;19.224;2024-03-23T13:19:01;72770.63;;;-143.90;31.97
76050;BME280;64967;50.234;19.224;2024-03-23T13:21:27;72778.88;;;-143.90;31.68
76050;BME280;64967;50.234;19.224;2024-03-23T13:23:52;72762.34;;;-143.90;31.76
76050;BME280;64967;50.234;19.224;2024-03-23T13:26:18;72741.69;;;-143.90;31.93
76050;BME280;64967;50.234;19.224;2024-03-23T13:28:43;72733.44;;;-143.90;31.83